Clayton Township, Michigan
Current Conditions -  °F | °C
As of 5:53 AM on Thursday 18 Dec 2014 (Local Time) from KADG Reporting Station
Overcast Overcast  
Wind Chill: 22°   Ceiling: 2300
Heat Index: 29°   Visibility: 10mi
Dew Point: 22°   Wind: 7mph
Humidity: 75%   Direction: 290°WNW
Pressure: 30.21"   Gusts: NA
Location:  41.8643°N, 84.2151°W
Report Text: KADG 181053Z AUTO 29006KT 10SM OVC023 M02/M06 A3021 RMK AO2 SLP242 T10171056 $
Loading
Personal Weather Stations






























Interactive Weather Map New forecast layout! Learn more

10-Day Weather Forecast

Advertisements
Track Severe Weather on mobile